Time;durP1;ratioP1;P1;durP2;ratioP2;P2;SDS_P1;SDS_P2;PMS_P1;PMS_P2;Temp;Humidity;BMP_temperature;BMP_pressure;BME280_temperature;BME280_humidity;BME280_pressure;Samples;Min_cycle;Max_cycle;Signal;HPM_P1;HPM_P2
2022/08/29 00:00:34;;;;;;;34.97;19.42;;;;;;;;;;6216485;23;20025;-67
2022/08/29 00:03:05;;;;;;;67.03;48.08;;;;;;;;;;6216769;23;20025;-67
2022/08/29 00:05:36;;;;;;;30.67;18.02;;;;;;;;;;6190949;23;20024;-67
2022/08/29 00:08:04;;;;;;;27.33;16.58;;;;;;;;;;6216547;23;20017;-66
2022/08/29 00:10:32;;;;;;;29.02;19.77;;;;;;;;;;6217269;23;20021;-67
2022/08/29 00:13:00;;;;;;;19.13;13.38;;;;;;;;;;6220689;23;20017;-67
2022/08/29 00:15:28;;;;;;;23.15;13.07;;;;;;;;;;6217341;23;20024;-67
2022/08/29 00:17:56;;;;;;;39.90;24.35;;;;;;;;;;6217289;23;20020;-67
2022/08/29 00:20:25;;;;;;;19.45;8.63;;;;;;;;;;6219994;23;20020;-66
2022/08/29 00:23:00;;;;;;;17.35;9.73;;;;;;;;;;6220947;23;20021;-67
2022/08/29 00:25:28;;;;;;;18.95;11.23;;;;;;;;;;6217476;23;20016;-66
2022/08/29 00:27:55;;;;;;;18.38;9.20;;;;;;;;;;6217263;23;20029;-66
2022/08/29 00:30:23;;;;;;;27.10;19.20;;;;;;;;;;6216411;23;20461;-66
2022/08/29 00:32:51;;;;;;;18.55;12.23;;;;;;;;;;6216647;23;20064;-66
2022/08/29 00:35:20;;;;;;;11.93;8.00;;;;;;;;;;6190325;23;20021;-66
2022/08/29 00:37:50;;;;;;;12.88;8.52;;;;;;;;;;6216137;23;20087;-66
2022/08/29 00:40:20;;;;;;;15.63;9.13;;;;;;;;;;6189974;23;20022;-66
2022/08/29 00:42:47;;;;;;;14.88;9.05;;;;;;;;;;6216473;23;20465;-67
2022/08/29 00:45:16;;;;;;;33.88;24.50;;;;;;;;;;6190156;23;20021;-66
2022/08/29 00:48:16;;;;;;;38.28;25.92;;;;;;;;;;6216458;23;20434;-66
2022/08/29 00:50:46;;;;;;;13.73;9.35;;;;;;;;;;6152281;23;20446;-66
2022/08/29 00:53:15;;;;;;;33.83;23.75;;;;;;;;;;6217738;23;20148;-66
2022/08/29 00:55:45;;;;;;;13.77;7.00;;;;;;;;;;6190240;23;20052;-66
2022/08/29 00:58:35;;;;;;;18.20;12.13;;;;;;;;;;6190243;23;20020;-67
2022/08/29 01:01:03;;;;;;;15.27;8.32;;;;;;;;;;6216851;23;20020;-67
2022/08/29 01:03:32;;;;;;;10.93;8.43;;;;;;;;;;6216311;23;20016;-66
2022/08/29 01:06:00;;;;;;;14.73;9.75;;;;;;;;;;6216496;23;20013;-66
2022/08/29 01:08:29;;;;;;;14.27;8.07;;;;;;;;;;6216564;23;20016;-67
2022/08/29 01:13:44;;;;;;;12.23;6.85;;;;;;;;;;6216884;23;20439;-66
2022/08/29 01:16:13;;;;;;;17.42;12.43;;;;;;;;;;6216839;23;20027;-66
2022/08/29 01:18:42;;;;;;;15.52;8.77;;;;;;;;;;6216198;23;20040;-66
2022/08/29 01:21:22;;;;;;;12.93;8.05;;;;;;;;;;6216573;23;20020;-66
2022/08/29 01:23:53;;;;;;;13.50;9.32;;;;;;;;;;6216037;23;20033;-66
2022/08/29 01:26:22;;;;;;;13.68;9.52;;;;;;;;;;6183946;23;20399;-66
2022/08/29 01:28:51;;;;;;;14.85;8.50;;;;;;;;;;6186149;23;20020;-66
2022/08/29 01:31:21;;;;;;;14.25;7.68;;;;;;;;;;6186026;23;20020;-66
2022/08/29 01:34:09;;;;;;;11.38;7.63;;;;;;;;;;6185774;23;20047;-66
2022/08/29 01:36:47;;;;;;;16.08;8.20;;;;;;;;;;6186086;23;20021;-66
2022/08/29 01:39:14;;;;;;;10.35;6.82;;;;;;;;;;6185963;23;20096;-66
2022/08/29 01:41:42;;;;;;;18.90;11.57;;;;;;;;;;6185861;23;20072;-67
2022/08/29 01:44:12;;;;;;;11.75;9.02;;;;;;;;;;6186261;23;20091;-67
2022/08/29 01:46:40;;;;;;;8.57;7.50;;;;;;;;;;6186149;23;20399;-66
2022/08/29 01:49:09;;;;;;;14.90;9.75;;;;;;;;;;6184890;23;20092;-66
2022/08/29 01:51:38;;;;;;;12.13;7.60;;;;;;;;;;6185597;23;20088;-67
2022/08/29 01:54:06;;;;;;;15.68;7.45;;;;;;;;;;6186066;23;20017;-67
2022/08/29 01:56:35;;;;;;;14.02;8.18;;;;;;;;;;6185769;23;20029;-66
2022/08/29 01:59:04;;;;;;;11.90;7.28;;;;;;;;;;6186181;23;20088;-66
2022/08/29 02:01:35;;;;;;;14.75;8.30;;;;;;;;;;6185729;23;20047;-67
2022/08/29 02:04:04;;;;;;;16.63;11.43;;;;;;;;;;6187036;23;20125;-67
2022/08/29 02:06:32;;;;;;;14.07;8.38;;;;;;;;;;6185831;23;20021;-67
2022/08/29 02:09:00;;;;;;;18.58;12.25;;;;;;;;;;6186067;23;20021;-67
2022/08/29 02:11:27;;;;;;;15.27;8.45;;;;;;;;;;6186041;23;20439;-67
2022/08/29 02:13:56;;;;;;;21.83;14.32;;;;;;;;;;6186226;23;20023;-67
2022/08/29 02:16:26;;;;;;;15.57;13.63;;;;;;;;;;6185720;23;20096;-66
2022/08/29 02:18:54;;;;;;;17.65;11.55;;;;;;;;;;6185557;23;20067;-66
2022/08/29 02:21:23;;;;;;;13.88;9.55;;;;;;;;;;6184664;23;20017;-67
2022/08/29 02:23:51;;;;;;;17.70;10.20;;;;;;;;;;6184905;23;20436;-67
2022/08/29 02:26:20;;;;;;;16.25;9.95;;;;;;;;;;6192264;23;20386;-67
2022/08/29 02:28:49;;;;;;;10.98;8.63;;;;;;;;;;6215593;23;20021;-66
2022/08/29 02:31:17;;;;;;;16.80;8.82;;;;;;;;;;6215372;23;20096;-67
2022/08/29 02:33:45;;;;;;;11.00;8.02;;;;;;;;;;6215150;23;20095;-67
2022/08/29 02:36:13;;;;;;;15.32;7.65;;;;;;;;;;6215149;23;20012;-67
2022/08/29 02:38:41;;;;;;;9.30;6.82;;;;;;;;;;6215923;23;20017;-67
2022/08/29 02:41:09;;;;;;;13.77;10.55;;;;;;;;;;6215163;23;20342;-67
2022/08/29 02:43:41;;;;;;;17.60;13.52;;;;;;;;;;6215291;23;20091;-67
2022/08/29 02:46:12;;;;;;;43.28;33.83;;;;;;;;;;6215091;23;20016;-67
2022/08/29 02:48:40;;;;;;;19.88;15.57;;;;;;;;;;6190090;23;20091;-67
2022/08/29 02:51:21;;;;;;;20.73;16.60;;;;;;;;;;6215996;23;20017;-66
2022/08/29 02:53:49;;;;;;;13.85;7.90;;;;;;;;;;6215750;23;20246;-66
2022/08/29 02:56:18;;;;;;;14.52;11.13;;;;;;;;;;6189177;23;20016;-66
2022/08/29 02:58:48;;;;;;;21.25;17.10;;;;;;;;;;6215209;23;20017;-66
2022/08/29 03:01:17;;;;;;;10.68;8.00;;;;;;;;;;6188857;23;20027;-66
2022/08/29 03:03:45;;;;;;;17.95;12.35;;;;;;;;;;6215105;23;20067;-66
2022/08/29 03:06:13;;;;;;;15.30;10.65;;;;;;;;;;6216059;23;20024;-66
2022/08/29 03:08:40;;;;;;;19.10;10.73;;;;;;;;;;6214974;23;20074;-66
2022/08/29 03:11:08;;;;;;;12.70;10.35;;;;;;;;;;6215022;23;20017;-66
2022/08/29 03:13:36;;;;;;;18.20;13.38;;;;;;;;;;6215343;23;20017;-66
2022/08/29 03:16:04;;;;;;;16.63;11.88;;;;;;;;;;6188433;23;20017;-66
2022/08/29 03:18:33;;;;;;;17.48;11.05;;;;;;;;;;6215115;23;20012;-67
2022/08/29 03:21:00;;;;;;;15.30;10.73;;;;;;;;;;6215012;23;20512;-66
2022/08/29 03:23:28;;;;;;;17.85;10.98;;;;;;;;;;6215173;23;20020;-66
2022/08/29 03:25:55;;;;;;;17.92;11.98;;;;;;;;;;6215697;23;20021;-67
2022/08/29 03:28:24;;;;;;;16.23;10.00;;;;;;;;;;6216341;23;20012;-66
2022/08/29 03:30:51;;;;;;;17.58;10.57;;;;;;;;;;6214598;23;20020;-66
2022/08/29 03:33:19;;;;;;;18.52;11.43;;;;;;;;;;6188738;23;20071;-66
2022/08/29 03:35:46;;;;;;;16.48;9.82;;;;;;;;;;6214912;23;20021;-66
2022/08/29 03:38:14;;;;;;;15.32;11.13;;;;;;;;;;6215818;23;20051;-68
2022/08/29 03:40:42;;;;;;;19.58;10.18;;;;;;;;;;6216312;23;20019;-68
2022/08/29 03:43:10;;;;;;;11.73;8.23;;;;;;;;;;6215192;23;20017;-70
2022/08/29 03:45:38;;;;;;;17.63;10.25;;;;;;;;;;6215233;23;20016;-68
2022/08/29 03:48:06;;;;;;;15.60;9.02;;;;;;;;;;6214791;23;20386;-68
2022/08/29 03:50:34;;;;;;;15.65;10.90;;;;;;;;;;6214339;23;20028;-67
2022/08/29 03:53:01;;;;;;;19.77;10.02;;;;;;;;;;6214797;23;20013;-68
2022/08/29 03:55:29;;;;;;;15.93;8.48;;;;;;;;;;6188436;23;20027;-67
2022/08/29 03:57:57;;;;;;;18.55;8.60;;;;;;;;;;6214840;23;20016;-67
2022/08/29 04:00:24;;;;;;;14.65;8.70;;;;;;;;;;6214553;23;20020;-67
2022/08/29 04:02:54;;;;;;;16.98;10.63;;;;;;;;;;6214739;23;20013;-67
2022/08/29 04:05:21;;;;;;;40.03;27.88;;;;;;;;;;6214790;23;20104;-68
2022/08/29 04:07:51;;;;;;;19.52;15.38;;;;;;;;;;6188428;23;20019;-67
2022/08/29 04:10:32;;;;;;;23.55;16.10;;;;;;;;;;6214444;23;20021;-67
2022/08/29 04:13:00;;;;;;;15.85;8.52;;;;;;;;;;6214680;23;20035;-67
2022/08/29 04:15:29;;;;;;;16.60;9.15;;;;;;;;;;6214434;23;20028;-68
2022/08/29 04:17:58;;;;;;;9.90;7.97;;;;;;;;;;6214676;23;20042;-67
2022/08/29 04:20:27;;;;;;;27.08;20.20;;;;;;;;;;6214779;23;20095;-68
2022/08/29 04:22:56;;;;;;;26.30;17.10;;;;;;;;;;6188157;23;20013;-68
2022/08/29 04:25:24;;;;;;;14.90;10.27;;;;;;;;;;6217331;23;20096;-67
2022/08/29 04:27:53;;;;;;;23.40;14.50;;;;;;;;;;6190602;23;20024;-68
2022/08/29 04:30:22;;;;;;;19.35;12.95;;;;;;;;;;6189736;23;20030;-68
2022/08/29 04:32:49;;;;;;;20.08;10.00;;;;;;;;;;6216645;23;20040;-68
2022/08/29 04:35:17;;;;;;;10.85;7.53;;;;;;;;;;6216348;23;20019;-68
2022/08/29 04:37:45;;;;;;;12.63;8.07;;;;;;;;;;6216276;23;20021;-67
2022/08/29 04:40:14;;;;;;;12.35;8.52;;;;;;;;;;6216453;23;20016;-67
2022/08/29 04:42:42;;;;;;;21.05;11.23;;;;;;;;;;6216246;23;20465;-68
2022/08/29 04:45:11;;;;;;;15.45;9.30;;;;;;;;;;6216767;23;20040;-68
2022/08/29 04:47:38;;;;;;;14.32;9.30;;;;;;;;;;6216214;23;20020;-68
2022/08/29 04:50:07;;;;;;;18.15;10.90;;;;;;;;;;6215852;23;20027;-68
2022/08/29 04:52:35;;;;;;;19.02;10.43;;;;;;;;;;6216404;23;20099;-68
2022/08/29 04:55:04;;;;;;;15.55;9.57;;;;;;;;;;6216057;23;20021;-67
2022/08/29 04:57:31;;;;;;;17.40;10.52;;;;;;;;;;6215914;23;20016;-67
2022/08/29 04:59:59;;;;;;;16.45;9.32;;;;;;;;;;6215760;23;20059;-67
2022/08/29 05:02:27;;;;;;;19.15;9.32;;;;;;;;;;6215807;23;20013;-66
2022/08/29 05:04:55;;;;;;;13.77;9.10;;;;;;;;;;6215949;23;20016;-68
2022/08/29 05:07:24;;;;;;;20.50;9.60;;;;;;;;;;6189400;23;20021;-67
2022/08/29 05:09:59;;;;;;;18.08;10.00;;;;;;;;;;6215899;23;20013;-67
2022/08/29 05:12:28;;;;;;;16.00;10.07;;;;;;;;;;6215846;23;20017;-67
2022/08/29 05:14:56;;;;;;;21.00;11.90;;;;;;;;;;6216221;23;20016;-66
2022/08/29 05:17:23;;;;;;;13.27;10.02;;;;;;;;;;6216078;23;20338;-67
2022/08/29 05:19:51;;;;;;;15.23;9.40;;;;;;;;;;6216209;23;20021;-67
2022/08/29 05:22:20;;;;;;;19.25;11.45;;;;;;;;;;6215603;23;20383;-67
2022/08/29 05:24:48;;;;;;;17.33;9.88;;;;;;;;;;6215910;23;20021;-67
2022/08/29 05:27:18;;;;;;;16.38;9.93;;;;;;;;;;6215336;23;20344;-68
2022/08/29 05:29:46;;;;;;;15.15;8.30;;;;;;;;;;6189061;23;20098;-68
2022/08/29 05:32:16;;;;;;;14.90;8.20;;;;;;;;;;6164441;23;20020;-67
2022/08/29 05:34:44;;;;;;;15.65;8.40;;;;;;;;;;6215913;23;20047;-68
2022/08/29 05:37:13;;;;;;;17.40;9.73;;;;;;;;;;6216184;23;20039;-68
2022/08/29 05:39:41;;;;;;;32.58;24.13;;;;;;;;;;6189758;23;20016;-67
2022/08/29 05:42:11;;;;;;;26.67;16.58;;;;;;;;;;6190063;23;20020;-68
2022/08/29 05:44:39;;;;;;;62.95;49.92;;;;;;;;;;6215769;23;20447;-68
2022/08/29 05:47:08;;;;;;;28.23;19.83;;;;;;;;;;6215669;23;20092;-69
2022/08/29 05:49:36;;;;;;;24.20;17.40;;;;;;;;;;6188873;23;20096;-68
2022/08/29 05:52:04;;;;;;;20.27;11.40;;;;;;;;;;6215635;23;20028;-68
2022/08/29 05:54:33;;;;;;;19.70;12.40;;;;;;;;;;6215873;23;20063;-68
2022/08/29 05:57:01;;;;;;;23.05;13.20;;;;;;;;;;6215434;23;20028;-68
2022/08/29 05:59:29;;;;;;;17.55;13.00;;;;;;;;;;6188968;23;20067;-68
2022/08/29 06:01:57;;;;;;;24.35;17.15;;;;;;;;;;6215443;23;20023;-68
2022/08/29 06:04:24;;;;;;;17.92;10.30;;;;;;;;;;6215475;23;20466;-68
2022/08/29 06:06:52;;;;;;;17.08;9.27;;;;;;;;;;6215442;23;20013;-68
2022/08/29 06:09:19;;;;;;;23.35;15.88;;;;;;;;;;6215346;23;20020;-68
2022/08/29 06:11:48;;;;;;;14.27;10.38;;;;;;;;;;6215265;23;20021;-68
2022/08/29 06:14:15;;;;;;;21.33;12.00;;;;;;;;;;6215321;23;20013;-68
2022/08/29 06:16:43;;;;;;;17.70;11.25;;;;;;;;;;6215441;23;20071;-68
2022/08/29 06:19:11;;;;;;;21.40;10.88;;;;;;;;;;6215267;23;20465;-68
2022/08/29 06:21:39;;;;;;;15.43;9.85;;;;;;;;;;6215110;23;20012;-68
2022/08/29 06:24:07;;;;;;;13.80;9.38;;;;;;;;;;6215519;23;20390;-68
2022/08/29 06:26:35;;;;;;;19.15;11.30;;;;;;;;;;6214886;23;20096;-69
2022/08/29 06:29:06;;;;;;;16.73;9.88;;;;;;;;;;6215248;23;20024;-68
2022/08/29 06:31:34;;;;;;;19.15;8.80;;;;;;;;;;6215082;23;20024;-68
2022/08/29 06:34:03;;;;;;;18.80;9.38;;;;;;;;;;6215272;23;20023;-68
2022/08/29 06:36:31;;;;;;;17.30;9.80;;;;;;;;;;6214904;23;20035;-69
2022/08/29 06:39:05;;;;;;;21.08;10.40;;;;;;;;;;6214830;23;20435;-69
2022/08/29 06:41:34;;;;;;;15.93;8.68;;;;;;;;;;6214877;23;20023;-69
2022/08/29 06:44:02;;;;;;;22.77;11.88;;;;;;;;;;6188139;23;20394;-69
2022/08/29 06:46:31;;;;;;;19.05;10.52;;;;;;;;;;6214307;23;20044;-69
2022/08/29 06:49:00;;;;;;;25.85;15.75;;;;;;;;;;6214973;23;20021;-68
2022/08/29 06:51:31;;;;;;;48.30;29.65;;;;;;;;;;6214490;23;20021;-69
2022/08/29 06:54:03;;;;;;;19.40;8.18;;;;;;;;;;6214764;23;20013;-68
2022/08/29 06:56:34;;;;;;;20.77;9.50;;;;;;;;;;6214483;23;20017;-69
2022/08/29 06:59:03;;;;;;;13.93;7.68;;;;;;;;;;6214126;23;20009;-68
2022/08/29 07:01:31;;;;;;;22.38;8.50;;;;;;;;;;6214567;23;20024;-69
2022/08/29 07:04:00;;;;;;;18.35;9.10;;;;;;;;;;6214373;23;20012;-68
2022/08/29 07:06:29;;;;;;;18.88;7.90;;;;;;;;;;6214544;23;20021;-69
2022/08/29 07:08:57;;;;;;;26.83;14.77;;;;;;;;;;6214444;23;20036;-69
2022/08/29 07:11:25;;;;;;;17.30;9.82;;;;;;;;;;6214612;23;20025;-69
2022/08/29 07:13:56;;;;;;;19.08;9.30;;;;;;;;;;6163864;23;20083;-69
2022/08/29 07:16:23;;;;;;;18.23;10.60;;;;;;;;;;6214604;23;20024;-69
2022/08/29 07:18:52;;;;;;;21.75;11.40;;;;;;;;;;6214431;23;20017;-69
2022/08/29 07:21:21;;;;;;;19.15;9.90;;;;;;;;;;6214494;23;20092;-69
2022/08/29 07:23:49;;;;;;;15.77;9.90;;;;;;;;;;6214497;23;20346;-69
2022/08/29 07:26:28;;;;;;;18.33;9.48;;;;;;;;;;6214486;23;20017;-69
2022/08/29 07:28:57;;;;;;;18.85;8.50;;;;;;;;;;6214702;23;20439;-69
2022/08/29 07:31:25;;;;;;;20.55;9.02;;;;;;;;;;6214378;23;20466;-69
2022/08/29 07:33:57;;;;;;;16.38;9.13;;;;;;;;;;6214763;23;20076;-69
2022/08/29 07:36:29;;;;;;;21.05;8.98;;;;;;;;;;6214707;23;20021;-69
2022/08/29 07:38:57;;;;;;;19.40;8.35;;;;;;;;;;6214698;23;20039;-70
2022/08/29 07:41:24;;;;;;;20.05;8.13;;;;;;;;;;6214720;23;20020;-70
2022/08/29 07:43:52;;;;;;;20.65;7.82;;;;;;;;;;6215090;23;20331;-69
2022/08/29 07:46:20;;;;;;;14.98;7.95;;;;;;;;;;6214617;23;20021;-70
2022/08/29 07:48:48;;;;;;;16.65;8.52;;;;;;;;;;6214374;23;20019;-69
2022/08/29 07:51:16;;;;;;;19.38;8.48;;;;;;;;;;6214581;23;20027;-69
2022/08/29 07:53:45;;;;;;;20.65;8.43;;;;;;;;;;6188027;23;20021;-69
2022/08/29 07:56:15;;;;;;;15.48;8.40;;;;;;;;;;6214929;23;20051;-70
2022/08/29 07:58:43;;;;;;;19.98;9.07;;;;;;;;;;6215526;23;20013;-70
2022/08/29 08:01:10;;;;;;;28.65;9.18;;;;;;;;;;6216630;23;20020;-70
2022/08/29 08:03:48;;;;;;;33.50;8.88;;;;;;;;;;6216568;23;20012;-69
2022/08/29 08:06:18;;;;;;;17.27;9.10;;;;;;;;;;6216522;23;20054;-69
2022/08/29 08:08:46;;;;;;;21.63;11.10;;;;;;;;;;6216677;23;20016;-69
2022/08/29 08:11:14;;;;;;;13.65;7.65;;;;;;;;;;6216157;23;20013;-69
2022/08/29 08:13:42;;;;;;;17.45;8.30;;;;;;;;;;6189889;23;20341;-69
2022/08/29 08:16:11;;;;;;;16.80;7.82;;;;;;;;;;6189760;23;20100;-69
2022/08/29 08:18:40;;;;;;;15.15;7.63;;;;;;;;;;6216441;23;20044;-69
2022/08/29 08:21:08;;;;;;;21.02;7.97;;;;;;;;;;6216221;23;20016;-69
2022/08/29 08:23:36;;;;;;;19.38;8.30;;;;;;;;;;6216118;23;20012;-69
2022/08/29 08:26:04;;;;;;;17.15;8.73;;;;;;;;;;6216296;23;20020;-70
2022/08/29 08:28:32;;;;;;;21.63;8.27;;;;;;;;;;6190177;23;20028;-69
2022/08/29 08:31:00;;;;;;;16.30;7.65;;;;;;;;;;6216191;23;20017;-69
2022/08/29 08:33:33;;;;;;;17.63;7.72;;;;;;;;;;6216230;23;20017;-69
2022/08/29 08:36:12;;;;;;;15.15;7.03;;;;;;;;;;6216326;23;20029;-69
2022/08/29 08:38:40;;;;;;;15.40;7.15;;;;;;;;;;6216230;23;20075;-69
2022/08/29 08:41:26;;;;;;;12.65;6.88;;;;;;;;;;6216025;23;20028;-69
2022/08/29 08:43:54;;;;;;;17.27;7.00;;;;;;;;;;6216517;23;20016;-69
2022/08/29 08:46:30;;;;;;;16.48;7.75;;;;;;;;;;6215963;23;20021;-69
2022/08/29 08:49:00;;;;;;;21.13;7.30;;;;;;;;;;6216066;23;20023;-69
2022/08/29 08:51:30;;;;;;;14.23;7.20;;;;;;;;;;6216074;23;20107;-69
2022/08/29 08:53:58;;;;;;;22.38;12.18;;;;;;;;;;6215824;23;20370;-69
2022/08/29 08:56:38;;;;;;;14.60;7.88;;;;;;;;;;6189180;23;20095;-69
2022/08/29 08:59:20;;;;;;;15.35;7.13;;;;;;;;;;6215771;23;20088;-69
2022/08/29 09:01:57;;;;;;;14.57;7.03;;;;;;;;;;6215914;23;20446;-69
2022/08/29 09:04:33;;;;;;;18.67;7.47;;;;;;;;;;6215847;23;20024;-68
2022/08/29 09:07:03;;;;;;;14.07;7.07;;;;;;;;;;6216080;23;20074;-68
2022/08/29 09:09:31;;;;;;;14.10;6.85;;;;;;;;;;6215836;23;20027;-69
2022/08/29 09:12:05;;;;;;;14.45;7.55;;;;;;;;;;6216147;23;20028;-69
2022/08/29 09:14:55;;;;;;;17.05;7.28;;;;;;;;;;6216074;23;20017;-70
2022/08/29 09:17:46;;;;;;;17.08;7.68;;;;;;;;;;6215594;23;20386;-69
2022/08/29 09:20:28;;;;;;;14.70;7.80;;;;;;;;;;6204743;23;20067;-70
2022/08/29 09:23:08;;;;;;;18.25;7.38;;;;;;;;;;6189104;23;20344;-70
2022/08/29 09:25:36;;;;;;;14.23;6.93;;;;;;;;;;6216713;23;20067;-70
2022/08/29 09:28:07;;;;;;;13.27;6.75;;;;;;;;;;6215630;23;20017;-70
2022/08/29 09:30:36;;;;;;;14.57;6.93;;;;;;;;;;6215298;23;20053;-70
2022/08/29 09:33:08;;;;;;;16.48;6.80;;;;;;;;;;6215615;23;20017;-69
2022/08/29 09:35:40;;;;;;;18.35;7.10;;;;;;;;;;6215746;23;20079;-70
2022/08/29 09:38:17;;;;;;;16.20;6.45;;;;;;;;;;6215753;23;20486;-69
2022/08/29 09:40:47;;;;;;;17.75;6.53;;;;;;;;;;6215817;23;20096;-69
2022/08/29 09:43:26;;;;;;;22.23;6.80;;;;;;;;;;6215644;23;20088;-70
2022/08/29 09:46:02;;;;;;;14.15;6.40;;;;;;;;;;6215735;23;20021;-71
2022/08/29 09:48:30;;;;;;;14.10;6.03;;;;;;;;;;6215674;23;20087;-70
2022/08/29 09:51:09;;;;;;;16.77;5.93;;;;;;;;;;6215349;23;20044;-70
2022/08/29 09:53:37;;;;;;;14.45;5.95;;;;;;;;;;6215463;23;20316;-70
2022/08/29 09:56:08;;;;;;;17.60;6.55;;;;;;;;;;6215301;23;20020;-70
2022/08/29 09:58:38;;;;;;;18.85;6.32;;;;;;;;;;6215316;23;20016;-70
2022/08/29 10:01:11;;;;;;;13.07;6.05;;;;;;;;;;6215195;23;20327;-70
2022/08/29 10:03:41;;;;;;;17.15;6.45;;;;;;;;;;6215553;23;20016;-70
2022/08/29 10:06:17;;;;;;;14.02;5.40;;;;;;;;;;6215735;23;20427;-70
2022/08/29 10:08:55;;;;;;;16.38;8.90;;;;;;;;;;6215463;23;20078;-70
2022/08/29 10:11:27;;;;;;;14.77;6.50;;;;;;;;;;6215502;23;20024;-70
2022/08/29 10:13:56;;;;;;;14.85;6.07;;;;;;;;;;6215504;23;20017;-70
2022/08/29 10:16:23;;;;;;;17.63;5.78;;;;;;;;;;6215361;23;20021;-70
2022/08/29 10:18:54;;;;;;;16.08;6.65;;;;;;;;;;6215362;23;20181;-70
2022/08/29 10:21:31;;;;;;;11.70;5.63;;;;;;;;;;6189065;23;20392;-70
2022/08/29 10:24:10;;;;;;;17.33;6.15;;;;;;;;;;6215413;23;20044;-70
2022/08/29 10:27:00;;;;;;;17.55;5.57;;;;;;;;;;6215225;23;20083;-70
2022/08/29 10:29:49;;;;;;;17.42;6.45;;;;;;;;;;6189507;23;20039;-69
2022/08/29 10:32:35;;;;;;;17.23;6.60;;;;;;;;;;6215062;23;20338;-70
2022/08/29 10:35:21;;;;;;;15.40;6.50;;;;;;;;;;6215457;23;20017;-69
2022/08/29 10:38:00;;;;;;;11.00;5.75;;;;;;;;;;6215192;23;20442;-69
2022/08/29 10:40:28;;;;;;;10.55;5.88;;;;;;;;;;6215048;23;20071;-69
2022/08/29 10:43:13;;;;;;;13.93;5.88;;;;;;;;;;6215257;23;20091;-70
2022/08/29 10:45:50;;;;;;;12.88;5.78;;;;;;;;;;6215030;23;20491;-69
2022/08/29 10:48:25;;;;;;;21.25;6.47;;;;;;;;;;6214990;23;20044;-70
2022/08/29 10:51:11;;;;;;;16.88;5.88;;;;;;;;;;6214913;23;20082;-70
2022/08/29 10:53:42;;;;;;;13.63;5.90;;;;;;;;;;6215274;23;20040;-69
2022/08/29 10:56:09;;;;;;;13.25;6.03;;;;;;;;;;6214954;23;20016;-70
2022/08/29 10:58:55;;;;;;;12.60;6.13;;;;;;;;;;6214776;23;20022;-69
2022/08/29 11:01:23;;;;;;;14.52;6.53;;;;;;;;;;6214909;23;20021;-70
2022/08/29 11:04:16;;;;;;;13.05;5.68;;;;;;;;;;6214820;23;20017;-70
2022/08/29 11:06:47;;;;;;;14.38;6.13;;;;;;;;;;6214759;23;20021;-69
2022/08/29 11:09:41;;;;;;;14.63;6.15;;;;;;;;;;6214670;23;20024;-70
2022/08/29 11:12:21;;;;;;;12.90;5.85;;;;;;;;;;6184561;23;20363;-70
2022/08/29 11:14:57;;;;;;;13.23;5.60;;;;;;;;;;6188088;23;20059;-70
2022/08/29 11:17:28;;;;;;;17.27;6.28;;;;;;;;;;6214913;23;20443;-70
2022/08/29 11:20:10;;;;;;;14.10;6.22;;;;;;;;;;6214937;23;20025;-70
2022/08/29 11:22:43;;;;;;;15.77;6.57;;;;;;;;;;6215474;23;20013;-70
2022/08/29 11:25:15;;;;;;;12.27;6.82;;;;;;;;;;6214738;23;20024;-70
2022/08/29 11:28:03;;;;;;;12.15;5.93;;;;;;;;;;6214679;23;20023;-70
2022/08/29 11:30:42;;;;;;;11.52;5.20;;;;;;;;;;6214938;23;20021;-70
2022/08/29 11:33:26;;;;;;;12.82;5.68;;;;;;;;;;6216086;23;20016;-70
2022/08/29 11:35:54;;;;;;;13.85;5.68;;;;;;;;;;6217005;23;20028;-71
2022/08/29 11:38:21;;;;;;;14.63;5.72;;;;;;;;;;6216814;23;20343;-69
2022/08/29 11:40:49;;;;;;;14.35;6.05;;;;;;;;;;6216902;23;20335;-69
2022/08/29 11:43:38;;;;;;;16.17;5.32;;;;;;;;;;6194880;23;20349;-69
2022/08/29 11:46:06;;;;;;;14.50;6.82;;;;;;;;;;6217083;23;20027;-69
2022/08/29 11:48:45;;;;;;;14.45;5.57;;;;;;;;;;6217010;23;20031;-71
2022/08/29 11:51:32;;;;;;;12.98;5.95;;;;;;;;;;6216687;23;20043;-69
2022/08/29 11:54:21;;;;;;;14.43;5.35;;;;;;;;;;6216780;23;20486;-68
2022/08/29 11:57:01;;;;;;;15.13;6.38;;;;;;;;;;6216746;23;20043;-69
2022/08/29 11:59:49;;;;;;;15.07;4.28;;;;;;;;;;6216721;23;20027;-68
2022/08/29 12:02:29;;;;;;;14.50;4.53;;;;;;;;;;6216628;23;20461;-69
2022/08/29 12:05:09;;;;;;;10.30;4.47;;;;;;;;;;6216587;23;20017;-69
2022/08/29 12:07:48;;;;;;;9.55;4.80;;;;;;;;;;6216607;23;20516;-68
2022/08/29 12:10:24;;;;;;;14.45;4.80;;;;;;;;;;6216624;23;20021;-70
2022/08/29 12:12:55;;;;;;;13.18;4.70;;;;;;;;;;6216587;23;20016;-70
2022/08/29 12:15:23;;;;;;;13.82;5.50;;;;;;;;;;6189857;23;20082;-70
2022/08/29 12:17:51;;;;;;;14.18;4.45;;;;;;;;;;6216585;23;20024;-70
2022/08/29 12:20:40;;;;;;;16.55;6.03;;;;;;;;;;6189755;23;20347;-70
2022/08/29 12:23:13;;;;;;;11.55;4.70;;;;;;;;;;6216401;23;20067;-69
2022/08/29 12:25:53;;;;;;;12.75;5.50;;;;;;;;;;6216202;23;20088;-70
2022/08/29 12:28:43;;;;;;;12.88;4.75;;;;;;;;;;6216556;23;20088;-69
2022/08/29 12:31:17;;;;;;;14.52;4.47;;;;;;;;;;6216198;23;20012;-69
2022/08/29 12:33:45;;;;;;;12.93;6.00;;;;;;;;;;6216201;23;20020;-69
2022/08/29 12:36:30;;;;;;;16.55;4.60;;;;;;;;;;6216308;23;20012;-69
2022/08/29 12:39:04;;;;;;;14.15;5.00;;;;;;;;;;6216127;23;20438;-69
2022/08/29 12:41:50;;;;;;;16.75;4.88;;;;;;;;;;6216171;23;20012;-70
2022/08/29 12:44:21;;;;;;;14.68;4.95;;;;;;;;;;6215803;23;20048;-70
2022/08/29 12:47:09;;;;;;;14.80;4.70;;;;;;;;;;6216203;23;20016;-70
2022/08/29 12:49:50;;;;;;;12.00;4.68;;;;;;;;;;6216071;23;20051;-70
2022/08/29 12:52:34;;;;;;;12.27;4.80;;;;;;;;;;6216246;23;20021;-69
2022/08/29 12:55:17;;;;;;;12.38;4.85;;;;;;;;;;6216050;23;20012;-71
2022/08/29 12:57:47;;;;;;;12.88;5.10;;;;;;;;;;6189343;23;20439;-71
2022/08/29 13:00:23;;;;;;;15.98;5.00;;;;;;;;;;6215830;23;20031;-69
2022/08/29 13:03:10;;;;;;;16.65;5.15;;;;;;;;;;6164815;23;20063;-69
2022/08/29 13:05:42;;;;;;;14.95;5.38;;;;;;;;;;6215838;23;20313;-69
2022/08/29 13:08:09;;;;;;;13.90;4.85;;;;;;;;;;6215929;23;20447;-69
2022/08/29 13:10:41;;;;;;;10.60;4.53;;;;;;;;;;6216064;23;20012;-69
2022/08/29 13:13:17;;;;;;;11.70;4.20;;;;;;;;;;6215852;23;20024;-69
2022/08/29 13:15:48;;;;;;;15.32;5.05;;;;;;;;;;6216029;23;20016;-69
2022/08/29 13:18:16;;;;;;;15.15;4.63;;;;;;;;;;6189570;23;20024;-69
2022/08/29 13:20:46;;;;;;;14.68;5.18;;;;;;;;;;6216351;23;20009;-69
2022/08/29 13:23:25;;;;;;;14.45;4.80;;;;;;;;;;6216029;23;20017;-69
2022/08/29 13:25:52;;;;;;;16.27;5.32;;;;;;;;;;6215824;23;20066;-69
2022/08/29 13:28:29;;;;;;;9.93;4.75;;;;;;;;;;6215684;23;20021;-70
2022/08/29 13:31:05;;;;;;;13.88;4.70;;;;;;;;;;6215638;23;20021;-69
2022/08/29 13:33:33;;;;;;;13.70;4.68;;;;;;;;;;6215798;23;20108;-70
2022/08/29 13:36:22;;;;;;;13.75;4.53;;;;;;;;;;6215827;23;20067;-70
2022/08/29 13:39:09;;;;;;;16.23;4.95;;;;;;;;;;6215946;23;20016;-70
2022/08/29 13:41:37;;;;;;;17.17;5.18;;;;;;;;;;6215823;23;20012;-68
2022/08/29 13:44:05;;;;;;;14.70;5.00;;;;;;;;;;6215621;23;20020;-70
2022/08/29 13:46:32;;;;;;;17.83;4.32;;;;;;;;;;6215352;23;20024;-70
2022/08/29 13:49:01;;;;;;;17.65;4.68;;;;;;;;;;6215056;23;20016;-73
2022/08/29 13:51:29;;;;;;;21.80;5.25;;;;;;;;;;6215042;23;20071;-73
2022/08/29 13:53:57;;;;;;;14.70;4.82;;;;;;;;;;6215239;23;20020;-74
2022/08/29 13:56:29;;;;;;;13.43;4.60;;;;;;;;;;6214726;23;20017;-73
2022/08/29 13:58:59;;;;;;;17.10;4.85;;;;;;;;;;6188581;23;20350;-72
2022/08/29 14:01:26;;;;;;;11.38;4.88;;;;;;;;;;6215373;23;20091;-74
2022/08/29 14:03:56;;;;;;;12.35;4.45;;;;;;;;;;6215881;23;20023;-71
2022/08/29 14:06:33;;;;;;;11.02;4.45;;;;;;;;;;6190953;23;20023;-74
2022/08/29 14:09:01;;;;;;;13.95;4.82;;;;;;;;;;6215413;23;20087;-74
2022/08/29 14:11:29;;;;;;;19.13;5.38;;;;;;;;;;6215477;23;20023;-74
2022/08/29 14:13:57;;;;;;;13.82;4.72;;;;;;;;;;6215298;23;20039;-70
2022/08/29 14:16:25;;;;;;;15.60;4.88;;;;;;;;;;6215438;23;20013;-73
2022/08/29 14:18:53;;;;;;;13.98;4.90;;;;;;;;;;6215223;23;20021;-71
2022/08/29 14:21:21;;;;;;;12.85;4.85;;;;;;;;;;6215197;23;20020;-71
2022/08/29 14:23:50;;;;;;;15.38;4.97;;;;;;;;;;6215190;23;20020;-71
2022/08/29 14:26:17;;;;;;;15.82;6.60;;;;;;;;;;6215373;23;20021;-72
2022/08/29 14:28:45;;;;;;;12.25;5.32;;;;;;;;;;6215656;23;20100;-76
2022/08/29 14:31:14;;;;;;;14.65;5.35;;;;;;;;;;6215408;23;20446;-75
2022/08/29 14:33:42;;;;;;;18.70;10.95;;;;;;;;;;6215132;23;20016;-72
2022/08/29 14:36:11;;;;;;;11.52;5.72;;;;;;;;;;6215147;23;20028;-72
2022/08/29 14:38:38;;;;;;;14.35;6.93;;;;;;;;;;6213167;23;20598;-72
2022/08/29 14:41:06;;;;;;;13.98;5.75;;;;;;;;;;6186286;23;20455;-73
2022/08/29 14:43:34;;;;;;;12.48;6.57;;;;;;;;;;6212819;23;20021;-73
2022/08/29 14:46:09;;;;;;;14.10;5.15;;;;;;;;;;6213588;23;20495;-73
2022/08/29 14:48:37;;;;;;;20.45;5.63;;;;;;;;;;6213498;23;20020;-71
2022/08/29 14:51:04;;;;;;;14.82;5.32;;;;;;;;;;6213900;23;20036;-69
2022/08/29 14:53:32;;;;;;;12.40;4.63;;;;;;;;;;6214063;23;20067;-69